createdAt,value
2018-09-03T00:00:49.719Z,62.28
2018-09-03T00:01:49.734Z,61.87
2018-09-03T00:03:42.674Z,62.09
2018-09-03T00:04:42.681Z,61.99
2018-09-03T00:06:35.602Z,62.09
2018-09-03T00:07:35.616Z,62.09
2018-09-03T00:09:28.540Z,61.99
2018-09-03T00:10:28.555Z,62.38
2018-09-03T00:12:21.472Z,61.90
2018-09-03T00:13:21.495Z,62.28
2018-09-03T00:15:14.421Z,62.38
2018-09-03T00:16:14.438Z,62.38
2018-09-03T00:18:07.350Z,62.38
2018-09-03T00:19:07.377Z,62.18
2018-09-03T00:21:00.292Z,62.38
2018-09-03T00:22:00.306Z,62.45
2018-09-03T00:23:53.221Z,63.15
2018-09-03T00:24:53.243Z,63.06
2018-09-03T00:26:46.171Z,62.66
2018-09-03T00:27:46.181Z,63.21
2018-09-03T00:29:39.105Z,63.31
2018-09-03T00:30:39.120Z,63.21
2018-09-03T00:32:32.036Z,63.34
2018-09-03T00:33:32.061Z,63.31
2018-09-03T00:35:24.983Z,63.24
2018-09-03T00:36:24.998Z,63.34
2018-09-03T00:38:17.909Z,63.15
2018-09-03T00:39:17.934Z,63.12
2018-09-03T00:41:10.863Z,63.34
2018-09-03T00:42:10.880Z,63.89
2018-09-03T00:44:03.800Z,63.21
2018-09-03T00:45:03.826Z,63.70
2018-09-03T00:46:56.744Z,63.70
2018-09-03T00:47:56.764Z,63.73
2018-09-03T00:49:49.671Z,63.60
2018-09-03T00:50:49.694Z,63.60
2018-09-03T00:52:42.617Z,63.82
2018-09-03T00:53:42.630Z,63.60
2018-09-03T00:55:35.557Z,63.79
2018-09-03T00:56:35.574Z,63.89
2018-09-03T00:58:28.482Z,64.08
2018-09-03T00:59:28.505Z,64.18
2018-09-03T01:01:21.432Z,64.08
2018-09-03T01:02:21.443Z,64.08
2018-09-03T01:04:14.356Z,64.18
2018-09-03T01:05:14.380Z,64.28
2018-09-03T01:07:07.304Z,64.18
2018-09-03T01:08:07.317Z,64.18
2018-09-03T01:10:00.229Z,64.18
2018-09-03T01:11:00.253Z,64.18
2018-09-03T01:12:53.181Z,64.47
2018-09-03T01:13:53.195Z,64.28
2018-09-03T01:15:46.119Z,63.89
2018-09-03T01:16:46.133Z,64.18
2018-09-03T01:18:39.047Z,64.37
2018-09-03T01:19:39.074Z,64.28
2018-09-03T01:21:31.993Z,63.89
2018-09-03T01:22:32.006Z,64.66
2018-09-03T01:24:24.919Z,64.56
2018-09-03T01:25:24.942Z,64.47
2018-09-03T01:27:17.863Z,64.37
2018-09-03T01:28:17.879Z,64.47
2018-09-03T01:30:10.793Z,65.40
2018-09-03T01:31:10.815Z,65.81
2018-09-03T01:33:03.739Z,65.59
2018-09-03T01:34:03.754Z,65.40
2018-09-03T01:35:56.668Z,65.53
2018-09-03T01:36:56.695Z,65.63
2018-09-03T01:38:49.610Z,65.43
2018-09-03T01:39:49.634Z,65.50
2018-09-03T01:41:42.542Z,65.43
2018-09-03T01:42:42.560Z,65.72
2018-09-03T01:44:35.477Z,65.24
2018-09-03T01:45:35.496Z,64.95
2018-09-03T01:47:28.419Z,65.72
2018-09-03T01:48:28.433Z,65.72
2018-09-03T01:50:21.353Z,65.53
2018-09-03T01:51:21.373Z,65.63
2018-09-03T01:53:14.296Z,65.81
2018-09-03T01:54:14.314Z,65.91
2018-09-03T01:56:07.227Z,66.11
2018-09-03T01:57:07.247Z,65.63
2018-09-03T01:59:00.173Z,65.72
2018-09-03T02:00:00.192Z,65.43
2018-09-03T02:01:53.099Z,66.11
2018-09-03T02:02:53.122Z,65.81
2018-09-03T02:04:46.044Z,66.20
2018-09-03T02:05:46.058Z,65.72
2018-09-03T02:07:38.982Z,66.11
2018-09-03T02:08:38.994Z,66.30
2018-09-03T02:10:31.918Z,66.01
2018-09-03T02:11:31.946Z,65.63
2018-09-03T02:13:25.027Z,66.01
2018-09-03T02:14:25.042Z,65.91
2018-09-03T02:16:17.959Z,66.11
2018-09-03T02:17:17.980Z,66.11
2018-09-03T02:19:10.906Z,65.78
2018-09-03T02:20:10.918Z,66.78
2018-09-03T02:22:03.838Z,66.85
2018-09-03T02:23:03.865Z,67.13
2018-09-03T02:24:56.782Z,67.42
2018-09-03T02:25:56.797Z,67.52
2018-09-03T02:27:49.729Z,67.23
2018-09-03T02:28:49.732Z,67.33
2018-09-03T02:30:42.645Z,67.52
2018-09-03T02:31:42.668Z,67.33
2018-09-03T02:33:35.587Z,68.00
2018-09-03T02:34:35.600Z,67.71
2018-09-03T02:36:28.513Z,68.10
2018-09-03T02:37:28.540Z,68.10
2018-09-03T02:39:21.475Z,67.90
2018-09-03T02:40:21.475Z,67.90
2018-09-03T02:42:14.386Z,68.68
2018-09-03T02:43:14.408Z,68.38
2018-09-03T02:45:07.331Z,68.77
2018-09-03T02:46:07.351Z,68.58
2018-09-03T02:48:00.261Z,68.58
2018-09-03T02:49:00.281Z,68.58
2018-09-03T02:50:53.207Z,68.48
2018-09-03T02:51:53.220Z,68.48
2018-09-03T02:53:46.143Z,69.15
2018-09-03T02:54:46.157Z,69.06
2018-09-03T02:56:39.076Z,68.48
2018-09-03T02:57:39.101Z,68.58
2018-09-03T02:59:32.018Z,68.38
2018-09-03T03:00:32.030Z,68.58
2018-09-03T03:02:25.141Z,68.58
2018-09-03T03:03:25.163Z,68.48
2018-09-03T03:05:18.086Z,68.48
2018-09-03T03:06:18.101Z,68.38
2018-09-03T03:08:11.019Z,69.15
2018-09-03T03:09:11.038Z,69.15
2018-09-03T03:11:03.961Z,69.35
2018-09-03T03:12:03.975Z,69.35
2018-09-03T03:13:56.906Z,69.73
2018-09-03T03:14:56.908Z,69.54
2018-09-03T03:16:49.828Z,69.54
2018-09-03T03:17:49.847Z,69.93
2018-09-03T03:19:42.766Z,70.02
2018-09-03T03:20:42.781Z,69.99
2018-09-03T03:22:35.697Z,70.09
2018-09-03T03:23:35.723Z,69.99
2018-09-03T03:25:28.643Z,70.18
2018-09-03T03:26:28.654Z,70.56
2018-09-03T03:28:21.573Z,70.66
2018-09-03T03:29:21.593Z,70.56
2018-09-03T03:31:14.514Z,71.18
2018-09-03T03:32:14.526Z,70.95
2018-09-03T03:34:07.442Z,71.43
2018-09-03T03:35:14.584Z,71.14
2018-09-03T03:37:00.392Z,71.43
2018-09-03T03:38:00.403Z,71.43
2018-09-03T03:39:53.328Z,71.62
2018-09-03T03:40:53.342Z,71.53
2018-09-03T03:42:46.256Z,71.24
2018-09-03T03:43:46.278Z,71.62
2018-09-03T03:45:39.204Z,71.66
2018-09-03T03:46:39.211Z,71.53
2018-09-03T03:48:32.214Z,71.62
2018-09-03T03:49:32.149Z,71.53
2018-09-03T03:51:25.067Z,71.53
2018-09-03T03:52:25.081Z,71.62
2018-09-03T03:54:17.996Z,71.53
2018-09-03T03:55:18.126Z,71.72
2018-09-03T03:57:10.943Z,72.01
2018-09-03T03:58:10.961Z,71.81
2018-09-03T04:00:03.869Z,71.72
2018-09-03T04:01:03.892Z,71.91
2018-09-03T04:02:56.811Z,72.05
2018-09-03T04:03:56.825Z,71.95
2018-09-03T04:05:49.751Z,71.95
2018-09-03T04:06:49.765Z,71.66
2018-09-03T04:08:42.675Z,72.11
2018-09-03T04:09:42.699Z,72.20
2018-09-03T04:11:35.619Z,72.11
2018-09-03T04:12:35.637Z,72.14
2018-09-03T04:14:28.545Z,72.14
2018-09-03T04:15:28.567Z,72.01
2018-09-03T04:17:21.488Z,72.05
2018-09-03T04:18:21.504Z,72.05
2018-09-03T04:20:15.412Z,71.85
2018-09-03T04:21:15.433Z,72.63
2018-09-03T04:23:08.448Z,72.43
2018-09-03T04:24:08.369Z,72.49
2018-09-03T04:26:01.282Z,72.49
2018-09-03T04:27:01.303Z,72.39
2018-09-03T04:28:54.249Z,71.72
2018-09-03T04:29:54.238Z,72.49
2018-09-03T04:31:47.157Z,72.59
2018-09-03T04:32:47.172Z,72.39
2018-09-03T04:34:40.085Z,72.39
2018-09-03T04:35:40.109Z,72.97
2018-09-03T04:37:33.035Z,72.97
2018-09-03T04:38:33.071Z,72.88
2018-09-03T04:40:25.966Z,72.78
2018-09-03T04:41:25.985Z,73.07
2018-09-03T04:43:18.908Z,73.07
2018-09-03T04:44:18.919Z,73.55
2018-09-03T04:46:11.840Z,73.84
2018-09-03T04:47:11.861Z,73.74
2018-09-03T04:49:05.016Z,73.84
2018-09-03T04:50:05.033Z,73.74
2018-09-03T04:51:58.019Z,74.03
2018-09-03T04:52:57.970Z,74.03
2018-09-03T04:54:50.884Z,73.94
2018-09-03T04:55:50.905Z,74.13
2018-09-03T04:57:43.825Z,74.03
2018-09-03T04:58:43.838Z,74.32
2018-09-03T05:00:36.751Z,74.51
2018-09-03T05:01:36.777Z,74.32
2018-09-03T05:03:29.700Z,74.71
2018-09-03T05:04:29.709Z,74.41
2018-09-03T05:06:22.625Z,74.80
2018-09-03T05:07:22.650Z,74.80
2018-09-03T05:09:15.570Z,74.96
2018-09-03T05:10:15.581Z,75.19
2018-09-03T05:12:08.495Z,74.71
2018-09-03T05:13:08.519Z,74.80
2018-09-03T05:15:01.443Z,74.99
2018-09-03T05:16:01.456Z,75.28
2018-09-03T05:17:54.375Z,75.19
2018-09-03T05:18:54.388Z,75.44
2018-09-03T05:20:47.304Z,75.34
2018-09-03T05:21:47.325Z,75.34
2018-09-03T05:23:40.255Z,75.44
2018-09-03T05:24:40.271Z,75.24
2018-09-03T05:26:33.183Z,76.01
2018-09-03T05:27:33.204Z,76.11
2018-09-03T05:29:26.124Z,76.50
2018-09-03T05:30:26.140Z,75.92
2018-09-03T05:32:19.055Z,76.21
2018-09-03T05:33:19.077Z,76.69
2018-09-03T05:35:11.995Z,76.44
2018-09-03T05:36:12.008Z,76.50
2018-09-03T05:38:04.920Z,77.08
2018-09-03T05:39:04.942Z,77.26
2018-09-03T05:40:57.859Z,77.46
2018-09-03T05:41:57.876Z,77.56
2018-09-03T05:43:50.822Z,77.26
2018-09-03T05:44:50.810Z,77.17
2018-09-03T05:46:43.722Z,77.56
2018-09-03T05:47:43.743Z,78.42
2018-09-03T05:49:36.664Z,77.56
2018-09-03T05:50:36.764Z,77.21
2018-09-03T05:52:29.593Z,77.50
2018-09-03T05:53:29.615Z,77.50
2018-09-03T05:55:22.541Z,77.11
2018-09-03T05:56:22.556Z,76.44
2018-09-03T05:58:15.467Z,76.34
2018-09-03T05:59:15.564Z,76.53
2018-09-03T06:01:08.417Z,76.92
2018-09-03T06:02:08.429Z,76.92
2018-09-03T06:04:01.362Z,76.73
2018-09-03T06:05:01.418Z,76.53
2018-09-03T06:06:54.479Z,76.82
2018-09-03T06:07:54.498Z,76.44
2018-09-03T06:09:47.420Z,76.53
2018-09-03T06:10:47.439Z,77.01
2018-09-03T06:12:40.350Z,76.44
2018-09-03T06:13:40.370Z,76.09
2018-09-03T06:15:33.294Z,76.28
2018-09-03T06:16:33.326Z,76.28
2018-09-03T06:18:26.218Z,76.18
2018-09-03T06:19:26.239Z,75.71
2018-09-03T06:21:19.205Z,75.71
2018-09-03T06:22:19.179Z,75.99
2018-09-03T06:24:12.093Z,75.71
2018-09-03T06:25:12.117Z,75.71
2018-09-03T06:27:05.047Z,76.18
2018-09-03T06:28:05.062Z,75.61
2018-09-03T06:29:57.986Z,75.71
2018-09-03T06:30:58.003Z,76.09
2018-09-03T06:32:50.948Z,77.01
2018-09-03T06:33:50.953Z,76.92
2018-09-03T06:35:43.865Z,77.84
2018-09-03T06:36:43.881Z,78.33
2018-09-03T06:38:36.794Z,78.90
2018-09-03T06:39:36.824Z,78.61
2018-09-03T06:41:29.740Z,79.19
2018-09-03T06:42:29.754Z,79.53
2018-09-03T06:44:22.668Z,79.86
2018-09-03T06:45:22.689Z,79.67
2018-09-03T06:47:15.615Z,79.86
2018-09-03T06:48:15.628Z,80.25
2018-09-03T06:50:08.541Z,79.77
2018-09-03T06:51:08.564Z,79.67
2018-09-03T06:53:01.484Z,79.77
2018-09-03T06:54:01.498Z,80.25
2018-09-03T06:55:54.421Z,79.67
2018-09-03T06:56:54.433Z,79.38
2018-09-03T06:58:47.349Z,79.19
2018-09-03T06:59:47.381Z,79.86
2018-09-03T07:01:40.288Z,80.44
2018-09-03T07:02:40.302Z,80.25
2018-09-03T07:04:33.218Z,80.44
2018-09-03T07:05:33.237Z,80.35
2018-09-03T07:07:26.159Z,80.06
2018-09-03T07:08:26.179Z,80.25
2018-09-03T07:10:19.085Z,79.67
2018-09-03T07:11:19.109Z,79.67
2018-09-03T07:13:12.031Z,79.77
2018-09-03T07:14:12.043Z,80.54
2018-09-03T07:16:04.964Z,80.83
2018-09-03T07:17:04.975Z,81.40
2018-09-03T07:18:57.888Z,81.30
2018-09-03T07:19:57.911Z,81.21
2018-09-03T07:21:50.830Z,81.88
2018-09-03T07:22:50.849Z,81.98
2018-09-03T07:24:43.755Z,81.79
2018-09-03T07:25:43.782Z,81.88
2018-09-03T07:27:36.697Z,81.88
2018-09-03T07:28:36.717Z,81.70
2018-09-03T07:30:29.645Z,81.50
2018-09-03T07:31:29.649Z,80.96
2018-09-03T07:33:22.576Z,81.16
2018-09-03T07:34:22.592Z,81.16
2018-09-03T07:36:15.500Z,80.58
2018-09-03T07:37:15.524Z,79.71
2018-09-03T07:39:08.448Z,80.29
2018-09-03T07:40:08.461Z,80.58
2018-09-03T07:42:01.396Z,80.58
2018-09-03T07:43:01.411Z,80.10
2018-09-03T07:44:54.319Z,80.58
2018-09-03T07:45:54.344Z,80.23
2018-09-03T07:47:47.265Z,80.77
2018-09-03T07:48:47.281Z,80.77
2018-09-03T07:50:40.197Z,80.68
2018-09-03T07:51:40.217Z,80.77
2018-09-03T07:53:33.146Z,80.62
2018-09-03T07:54:33.165Z,80.62
2018-09-03T07:56:26.077Z,79.36
2018-09-03T07:57:26.097Z,79.27
2018-09-03T07:59:19.024Z,78.44
2018-09-03T08:00:19.038Z,77.86
2018-09-03T08:02:12.177Z,77.58
2018-09-03T08:03:12.188Z,77.48
2018-09-03T08:05:05.110Z,77.42
2018-09-03T08:06:05.136Z,77.23
2018-09-03T08:07:58.058Z,76.75
2018-09-03T08:08:58.071Z,76.07
2018-09-03T08:10:50.997Z,76.10
2018-09-03T08:11:51.013Z,75.43
2018-09-03T08:13:43.935Z,75.24
2018-09-03T08:14:43.952Z,75.14
2018-09-03T08:16:36.871Z,75.09
2018-09-03T08:17:36.892Z,74.02
2018-09-03T08:19:29.820Z,73.77
2018-09-03T08:20:29.836Z,72.61
2018-09-03T08:22:22.759Z,72.61
2018-09-03T08:23:22.781Z,72.26
2018-09-03T08:25:15.706Z,72.22
2018-09-03T08:26:15.723Z,71.94
2018-09-03T08:28:08.649Z,71.39
2018-09-03T08:29:08.667Z,71.39
2018-09-03T08:31:01.585Z,70.75
2018-09-03T08:32:01.611Z,70.46
2018-09-03T08:33:54.536Z,69.20
2018-09-03T08:34:54.554Z,69.20
2018-09-03T08:36:47.474Z,69.59
2018-09-03T08:37:47.498Z,68.82
2018-09-03T08:39:40.426Z,68.82
2018-09-03T08:40:40.444Z,68.04
2018-09-03T08:42:33.363Z,68.56
2018-09-03T08:43:33.389Z,68.14
2018-09-03T08:45:26.316Z,68.17
2018-09-03T08:46:26.333Z,68.95
2018-09-03T08:48:19.251Z,67.79
2018-09-03T08:49:19.277Z,68.08
2018-09-03T08:51:12.214Z,67.69
2018-09-03T08:52:12.231Z,67.69
2018-09-03T08:54:05.160Z,68.08
2018-09-03T08:55:05.176Z,68.85
2018-09-03T08:56:58.094Z,68.66
2018-09-03T08:57:58.117Z,68.95
2018-09-03T08:59:51.045Z,67.88
2018-09-03T09:00:51.062Z,68.75
2018-09-03T09:02:43.981Z,68.37
2018-09-03T09:03:44.007Z,68.27
2018-09-03T09:05:36.932Z,67.69
2018-09-03T09:06:36.947Z,67.88
2018-09-03T09:08:29.870Z,68.37
2018-09-03T09:09:29.894Z,67.69
2018-09-03T09:11:22.824Z,68.08
2018-09-03T09:12:22.844Z,68.08
2018-09-03T09:14:15.771Z,67.43
2018-09-03T09:15:15.786Z,66.75
2018-09-03T09:17:08.713Z,67.59
2018-09-03T09:18:08.737Z,66.95
2018-09-03T09:20:01.665Z,67.53
2018-09-03T09:21:01.684Z,66.95
2018-09-03T09:22:54.606Z,66.85
2018-09-03T09:23:54.641Z,67.14
2018-09-03T09:25:47.565Z,67.05
2018-09-03T09:26:47.585Z,66.75
2018-09-03T09:28:40.501Z,66.40
2018-09-03T09:29:40.527Z,66.88
2018-09-03T09:31:33.457Z,65.88
2018-09-03T09:32:33.473Z,66.17
2018-09-03T09:34:26.396Z,67.05
2018-09-03T09:35:26.424Z,67.14
2018-09-03T09:37:19.352Z,67.53
2018-09-03T09:38:19.375Z,67.91
2018-09-03T09:40:12.299Z,67.05
2018-09-03T09:41:12.314Z,66.95
2018-09-03T09:43:05.315Z,66.30
2018-09-03T09:44:05.274Z,65.34
2018-09-03T09:45:58.196Z,66.02
2018-09-03T09:46:58.213Z,66.02
2018-09-03T09:48:51.132Z,66.02
2018-09-03T09:49:51.163Z,65.75
2018-09-03T09:51:44.090Z,64.50
2018-09-03T09:52:44.105Z,64.11
2018-09-03T09:54:37.028Z,63.92
2018-09-03T09:55:37.059Z,64.69
2018-09-03T09:57:30.144Z,64.89
2018-09-03T09:58:30.164Z,64.20
2018-09-03T10:00:23.094Z,63.82
2018-09-03T10:01:23.122Z,63.82
2018-09-03T10:03:16.048Z,63.56
2018-09-03T10:04:16.073Z,63.46
2018-09-03T10:06:08.994Z,63.85
2018-09-03T10:07:09.015Z,63.46
2018-09-03T10:09:01.936Z,63.82
2018-09-03T10:10:01.965Z,63.24
2018-09-03T10:11:54.891Z,63.72
2018-09-03T10:12:54.911Z,64.11
2018-09-03T10:14:47.829Z,63.62
2018-09-03T10:15:47.855Z,64.40
2018-09-03T10:17:40.782Z,64.69
2018-09-03T10:18:40.804Z,64.50
2018-09-03T10:20:33.722Z,64.59
2018-09-03T10:21:33.753Z,64.20
2018-09-03T10:23:26.682Z,64.20
2018-09-03T10:24:26.700Z,63.92
2018-09-03T10:26:19.691Z,63.72
2018-09-03T10:27:19.652Z,63.53
2018-09-03T10:29:12.572Z,64.01
2018-09-03T10:30:12.602Z,64.01
2018-09-03T10:32:05.531Z,64.11
2018-09-03T10:33:05.546Z,63.92
2018-09-03T10:34:58.470Z,64.50
2018-09-03T10:35:58.501Z,64.50
2018-09-03T10:37:51.431Z,64.11
2018-09-03T10:38:51.450Z,64.98
2018-09-03T10:40:44.378Z,64.20
2018-09-03T10:41:44.403Z,64.20
2018-09-03T10:43:37.328Z,64.40
2018-09-03T10:44:37.352Z,64.72
2018-09-03T10:46:30.269Z,63.65
2018-09-03T10:47:30.362Z,63.75
2018-09-03T10:49:23.231Z,64.04
2018-09-03T10:50:23.250Z,63.46
2018-09-03T10:52:16.180Z,62.91
2018-09-03T10:53:16.200Z,62.23
2018-09-03T10:55:09.121Z,61.55
2018-09-03T10:56:09.189Z,61.49
2018-09-03T10:58:02.078Z,60.81
2018-09-03T10:59:02.099Z,60.52
2018-09-03T11:00:55.015Z,62.07
2018-09-03T11:01:55.043Z,61.49
2018-09-03T11:03:47.972Z,60.84
2018-09-03T11:04:47.997Z,60.64
2018-09-03T11:06:40.914Z,60.35
2018-09-03T11:07:40.945Z,60.64
2018-09-03T11:09:33.875Z,60.84
2018-09-03T11:10:33.896Z,60.55
2018-09-03T11:12:26.815Z,60.16
2018-09-03T11:13:26.845Z,60.35
2018-09-03T11:15:19.776Z,60.35
2018-09-03T11:16:19.796Z,60.74
2018-09-03T11:18:12.728Z,60.58
2018-09-03T11:19:12.749Z,60.28
2018-09-03T11:21:05.753Z,60.19
2018-09-03T11:22:05.702Z,59.51
2018-09-03T11:23:58.633Z,60.25
2018-09-03T11:24:58.756Z,60.35
2018-09-03T11:26:51.572Z,60.74
2018-09-03T11:27:51.602Z,59.87
2018-09-03T11:29:44.526Z,59.67
2018-09-03T11:30:44.553Z,60.25
2018-09-03T11:32:37.474Z,60.71
2018-09-03T11:33:37.502Z,61.00
2018-09-03T11:35:30.433Z,60.71
2018-09-03T11:36:30.457Z,60.71
2018-09-03T11:38:23.387Z,60.42
2018-09-03T11:39:23.405Z,60.78
2018-09-03T11:41:16.327Z,61.07
2018-09-03T11:42:16.354Z,61.75
2018-09-03T11:44:09.281Z,62.43
2018-09-03T11:45:09.306Z,61.88
2018-09-03T11:47:02.234Z,61.49
2018-09-03T11:48:02.254Z,61.00
2018-09-03T11:49:55.181Z,60.91
2018-09-03T11:50:55.201Z,61.19
2018-09-03T11:52:48.134Z,61.75
2018-09-03T11:53:48.154Z,61.65
2018-09-03T11:55:41.086Z,61.75
2018-09-03T11:56:41.109Z,62.23
2018-09-03T11:58:34.028Z,62.43
2018-09-03T11:59:34.062Z,62.40
2018-09-03T12:01:26.993Z,62.62
2018-09-03T12:02:27.010Z,62.01
2018-09-03T12:04:19.937Z,62.88
2018-09-03T12:05:19.955Z,63.27
2018-09-03T12:07:13.871Z,63.65
2018-09-03T12:08:13.897Z,63.56
2018-09-03T12:10:06.834Z,63.27
2018-09-03T12:11:06.853Z,63.17
2018-09-03T12:12:59.774Z,63.92
2018-09-03T12:13:59.797Z,63.85
2018-09-03T12:15:52.730Z,64.14
2018-09-03T12:16:52.749Z,64.14
2018-09-03T12:18:45.674Z,63.37
2018-09-03T12:19:45.696Z,63.07
2018-09-03T12:21:38.627Z,62.82
2018-09-03T12:22:38.645Z,62.62
2018-09-03T12:24:31.566Z,62.33
2018-09-03T12:25:31.590Z,62.33
2018-09-03T12:27:24.521Z,62.33
2018-09-03T12:28:24.538Z,62.04
2018-09-03T12:30:17.474Z,61.49
2018-09-03T12:31:17.543Z,61.00
2018-09-03T12:33:10.411Z,61.10
2018-09-03T12:34:10.438Z,60.81
2018-09-03T12:36:03.370Z,60.78
2018-09-03T12:37:03.465Z,61.36
2018-09-03T12:38:56.315Z,61.07
2018-09-03T12:39:56.344Z,61.65
2018-09-03T12:41:49.273Z,61.85
2018-09-03T12:42:49.299Z,62.23
2018-09-03T12:44:42.219Z,61.55
2018-09-03T12:45:42.246Z,61.65
2018-09-03T12:47:35.170Z,62.62
2018-09-03T12:48:35.187Z,62.23
2018-09-03T12:50:28.144Z,62.23
2018-09-03T12:51:28.145Z,63.49
2018-09-03T12:53:21.074Z,64.56
2018-09-03T12:54:21.096Z,64.75
2018-09-03T12:56:14.033Z,64.56
2018-09-03T12:57:14.050Z,65.63
2018-09-03T12:59:06.975Z,65.72
2018-09-03T13:00:07.003Z,66.89
2018-09-03T13:01:59.937Z,66.11
2018-09-03T13:02:59.989Z,66.89
2018-09-03T13:04:52.885Z,67.18
2018-09-03T13:05:52.912Z,67.37
2018-09-03T13:07:45.846Z,67.18
2018-09-03T13:08:45.864Z,68.05
2018-09-03T13:10:38.781Z,68.54
2018-09-03T13:11:38.811Z,68.34
2018-09-03T13:13:31.738Z,68.24
2018-09-03T13:14:31.765Z,70.67
2018-09-03T13:16:24.683Z,71.70
2018-09-03T13:17:24.703Z,69.85
2018-09-03T13:19:17.619Z,71.22
2018-09-03T13:20:17.648Z,71.02
2018-09-03T13:22:10.576Z,71.80
2018-09-03T13:23:10.601Z,70.44
2018-09-03T13:25:03.517Z,70.73
2018-09-03T13:26:03.542Z,71.66
2018-09-03T13:27:56.469Z,72.24
2018-09-03T13:28:56.488Z,72.53
2018-09-03T13:30:49.512Z,72.50
2018-09-03T13:31:49.438Z,72.02
2018-09-03T13:33:43.365Z,72.50
2018-09-03T13:34:43.385Z,73.31
2018-09-03T13:36:36.317Z,74.08
2018-09-03T13:37:36.338Z,73.41
2018-09-03T13:39:29.257Z,73.02
2018-09-03T13:40:29.293Z,71.28
2018-09-03T13:42:22.243Z,72.63
2018-09-03T13:43:22.229Z,74.47
2018-09-03T13:45:15.157Z,73.41
2018-09-03T13:46:15.183Z,72.98
2018-09-03T13:48:08.144Z,72.69
2018-09-03T13:49:08.130Z,72.69
2018-09-03T13:51:01.061Z,73.75
2018-09-03T13:52:01.082Z,73.89
2018-09-03T13:53:54.010Z,73.60
2018-09-03T13:54:54.074Z,72.05
2018-09-03T13:56:46.987Z,72.67
2018-09-03T13:57:46.975Z,71.99
2018-09-03T13:59:39.901Z,71.15
2018-09-03T14:00:39.919Z,70.37
2018-09-03T14:02:32.870Z,70.67
2018-09-03T14:03:32.909Z,69.89
2018-09-03T14:05:25.796Z,67.57
2018-09-03T14:06:25.828Z,67.66
2018-09-03T14:08:18.755Z,68.54
2018-09-03T14:09:18.773Z,66.99
2018-09-03T14:11:11.701Z,67.57
2018-09-03T14:12:11.724Z,67.08
2018-09-03T14:14:04.657Z,67.85
2018-09-03T14:15:04.672Z,68.73
2018-09-03T14:16:57.595Z,66.79
2018-09-03T14:17:57.627Z,67.18
2018-09-03T14:19:50.556Z,66.99
2018-09-03T14:20:50.577Z,66.99
2018-09-03T14:22:43.497Z,67.02
2018-09-03T14:23:43.528Z,66.79
2018-09-03T14:25:36.452Z,67.50
2018-09-03T14:26:36.472Z,66.92
2018-09-03T14:28:29.478Z,66.34
2018-09-03T14:29:29.435Z,65.85
2018-09-03T14:31:22.362Z,64.75
2018-09-03T14:32:22.384Z,64.75
2018-09-03T14:34:15.321Z,66.60
2018-09-03T14:35:15.339Z,67.40
2018-09-03T14:37:08.342Z,67.99
2018-09-03T14:38:08.293Z,68.37
2018-09-03T14:40:02.605Z,68.89
2018-09-03T14:41:01.242Z,68.86
2018-09-03T14:42:54.205Z,68.57
2018-09-03T14:43:54.198Z,67.99
2018-09-03T14:45:47.123Z,66.34
2018-09-03T14:46:47.143Z,66.53
2018-09-03T14:48:40.066Z,68.08
2018-09-03T14:49:40.174Z,67.02
2018-09-03T14:51:33.024Z,67.89
2018-09-03T14:52:33.053Z,67.50
2018-09-03T14:54:25.976Z,67.31
2018-09-03T14:55:25.995Z,67.79
2018-09-03T14:57:18.915Z,66.82
2018-09-03T14:58:18.950Z,67.24
2018-09-03T15:00:11.880Z,66.86
2018-09-03T15:01:11.898Z,66.95
2018-09-03T15:03:04.817Z,67.24
2018-09-03T15:04:04.870Z,66.47
2018-09-03T15:05:57.970Z,64.82
2018-09-03T15:06:57.989Z,63.72
2018-09-03T15:08:50.920Z,64.69
2018-09-03T15:09:50.942Z,65.47
2018-09-03T15:11:43.872Z,66.53
2018-09-03T15:12:43.892Z,66.92
2018-09-03T15:14:36.825Z,66.76
2018-09-03T15:15:36.839Z,66.47
2018-09-03T15:17:29.758Z,66.56
2018-09-03T15:18:29.791Z,66.27
2018-09-03T15:20:22.749Z,65.40
2018-09-03T15:21:22.741Z,65.79
2018-09-03T15:23:15.662Z,64.62
2018-09-03T15:24:15.686Z,64.33
2018-09-03T15:26:08.638Z,64.53
2018-09-03T15:27:08.637Z,63.85
2018-09-03T15:29:01.562Z,64.33
2018-09-03T15:30:01.594Z,63.95
2018-09-03T15:31:54.524Z,63.95
2018-09-03T15:32:54.546Z,64.04
2018-09-03T15:34:47.468Z,63.75
2018-09-03T15:35:47.502Z,64.62
2018-09-03T15:37:40.451Z,64.33
2018-09-03T15:38:40.470Z,64.53
2018-09-03T15:40:33.449Z,64.43
2018-09-03T15:41:33.442Z,63.95
2018-09-03T15:43:26.408Z,64.72
2018-09-03T15:44:26.403Z,64.62
2018-09-03T15:46:19.337Z,64.14
2018-09-03T15:47:19.367Z,64.33
2018-09-03T15:49:12.276Z,64.69
2018-09-03T15:50:12.297Z,64.62
2018-09-03T15:52:05.261Z,64.59
2018-09-03T15:53:05.240Z,64.69
2018-09-03T15:54:58.190Z,64.59
2018-09-03T15:55:58.228Z,64.59
2018-09-03T15:57:51.193Z,64.59
2018-09-03T15:58:51.160Z,64.59
2018-09-03T16:00:44.056Z,64.78
2018-09-03T16:01:44.084Z,65.37
2018-09-03T16:03:37.093Z,65.47
2018-09-03T16:04:37.138Z,65.34
2018-09-03T16:06:30.006Z,65.34
2018-09-03T16:07:29.974Z,65.53
2018-09-03T16:09:22.953Z,65.63
2018-09-03T16:10:22.956Z,66.20
2018-09-03T16:12:15.914Z,66.50
2018-09-03T16:13:15.888Z,66.11
2018-09-03T16:15:08.840Z,66.20
2018-09-03T16:16:08.876Z,66.40
2018-09-03T16:18:01.810Z,66.20
2018-09-03T16:19:01.803Z,66.20
2018-09-03T16:20:54.705Z,66.69
2018-09-03T16:21:54.714Z,66.11
2018-09-03T16:23:47.652Z,66.99
2018-09-03T16:24:47.669Z,66.60
2018-09-03T16:26:40.602Z,66.69
2018-09-03T16:27:40.637Z,66.69
2018-09-03T16:29:33.543Z,66.79
2018-09-03T16:30:33.570Z,67.18
2018-09-03T16:32:26.534Z,66.20
2018-09-03T16:33:26.522Z,66.50
2018-09-03T16:35:19.444Z,66.50
2018-09-03T16:36:19.474Z,66.50
2018-09-03T16:38:12.399Z,65.92
2018-09-03T16:39:12.414Z,66.11
2018-09-03T16:41:05.339Z,65.82
2018-09-03T16:42:05.412Z,65.34
2018-09-03T16:43:58.298Z,65.34
2018-09-03T16:44:58.322Z,65.63
2018-09-03T16:46:51.246Z,65.72
2018-09-03T16:47:51.269Z,66.40
2018-09-03T16:49:44.208Z,66.02
2018-09-03T16:50:44.211Z,65.92
2018-09-03T16:52:37.140Z,66.30
2018-09-03T16:53:37.161Z,66.40
2018-09-03T16:55:30.081Z,66.02
2018-09-03T16:56:30.105Z,66.40
2018-09-03T16:58:23.039Z,66.30
2018-09-03T16:59:23.059Z,66.30
2018-09-03T17:01:16.151Z,66.69
2018-09-03T17:02:16.001Z,66.02
2018-09-03T17:04:08.930Z,66.30
2018-09-03T17:05:08.942Z,66.17
2018-09-03T17:07:01.871Z,66.56
2018-09-03T17:08:02.054Z,67.14
2018-09-03T17:09:54.982Z,67.05
2018-09-03T17:10:55.001Z,67.24
2018-09-03T17:12:47.949Z,67.34
2018-09-03T17:13:47.961Z,66.95
2018-09-03T17:15:40.870Z,66.66
2018-09-03T17:16:40.912Z,66.17
2018-09-03T17:18:33.838Z,67.02
2018-09-03T17:19:33.844Z,67.02
2018-09-03T17:21:26.760Z,67.40
2018-09-03T17:22:26.788Z,67.88
2018-09-03T17:24:19.721Z,67.50
2018-09-03T17:25:19.739Z,67.69
2018-09-03T17:27:12.656Z,67.98
2018-09-03T17:28:12.689Z,68.08
2018-09-03T17:30:05.620Z,68.47
2018-09-03T17:31:05.635Z,68.56
2018-09-03T17:32:58.574Z,69.15
2018-09-03T17:33:58.584Z,68.76
2018-09-03T17:35:51.554Z,69.31
2018-09-03T17:36:51.532Z,68.91
2018-09-03T17:38:44.480Z,68.76
2018-09-03T17:39:44.474Z,68.82
2018-09-03T17:41:37.403Z,69.40
2018-09-03T17:42:37.427Z,69.34
2018-09-03T17:44:30.361Z,69.69
2018-09-03T17:45:30.468Z,69.73
2018-09-03T17:47:23.336Z,70.11
2018-09-03T17:48:23.396Z,69.79
2018-09-03T17:50:16.256Z,69.79
2018-09-03T17:51:16.300Z,69.69
2018-09-03T17:53:09.241Z,69.89
2018-09-03T17:54:09.284Z,69.69
2018-09-03T17:56:02.280Z,69.89
2018-09-03T17:57:02.209Z,70.27
2018-09-03T17:58:55.119Z,70.37
2018-09-03T17:59:55.104Z,70.27
2018-09-03T18:01:48.088Z,70.43
2018-09-03T18:02:48.054Z,70.43
2018-09-03T18:04:41.025Z,70.72
2018-09-03T18:05:41.036Z,71.01
2018-09-03T18:07:33.954Z,71.40
2018-09-03T18:08:34.042Z,71.30
2018-09-03T18:10:27.025Z,71.50
2018-09-03T18:11:26.970Z,71.40
2018-09-03T18:13:19.872Z,70.92
2018-09-03T18:14:19.873Z,70.72
2018-09-03T18:16:12.928Z,70.92
2018-09-03T18:17:12.894Z,70.82
2018-09-03T18:19:05.822Z,71.01
2018-09-03T18:20:05.883Z,71.50
2018-09-03T18:21:59.809Z,72.04
2018-09-03T18:22:59.851Z,71.94
2018-09-03T18:24:52.767Z,71.75
2018-09-03T18:25:52.801Z,72.33
2018-09-03T18:27:45.681Z,72.42
2018-09-03T18:28:45.731Z,72.88
2018-09-03T18:30:38.721Z,72.81
2018-09-03T18:31:38.695Z,72.58
2018-09-03T18:33:31.626Z,72.78